createdAt,value
2023-01-11T00:02:02.858Z,32.58
2023-01-11T00:04:30.733Z,28.45
2023-01-11T00:06:58.415Z,29.27
2023-01-11T00:09:25.316Z,34.67
2023-01-11T00:11:52.473Z,32.00
2023-01-11T00:14:19.316Z,36.13
2023-01-11T00:16:46.530Z,35.08
2023-01-11T00:19:13.802Z,42.83
2023-01-11T00:21:40.865Z,42.72
2023-01-11T00:24:07.812Z,36.35
2023-01-11T00:26:35.016Z,33.58
2023-01-11T00:29:01.843Z,34.05
2023-01-11T00:31:28.913Z,35.47
2023-01-11T00:33:56.092Z,34.13
2023-01-11T00:36:23.242Z,37.70
2023-01-11T00:38:54.365Z,38.13
2023-01-11T00:44:29.145Z,31.65
2023-01-11T00:47:15.792Z,30.75
2023-01-11T00:49:43.599Z,44.60
2023-01-11T00:52:10.901Z,44.10
2023-01-11T00:54:41.777Z,46.33
2023-01-11T00:57:09.272Z,37.15
2023-01-11T00:59:37.540Z,48.13
2023-01-11T01:02:05.051Z,46.92
2023-01-11T01:04:32.235Z,61.47
2023-01-11T01:06:59.420Z,60.90
2023-01-11T01:09:26.731Z,68.13
2023-01-11T01:11:53.809Z,60.85
2023-01-11T01:14:26.741Z,57.90
2023-01-11T01:16:55.537Z,60.33
2023-01-11T01:19:22.884Z,53.58
2023-01-11T01:21:51.022Z,50.97
2023-01-11T01:24:17.832Z,50.35
2023-01-11T01:26:44.998Z,47.63
2023-01-11T01:29:13.011Z,47.72
2023-01-11T01:31:40.717Z,35.80
2023-01-11T01:34:09.204Z,31.48
2023-01-11T01:36:36.895Z,32.58
2023-01-11T01:39:06.256Z,35.00
2023-01-11T01:41:34.912Z,38.25
2023-01-11T01:44:25.830Z,29.40
2023-01-11T01:46:53.009Z,29.35
2023-01-11T01:49:19.978Z,32.50
2023-01-11T01:51:54.117Z,31.02
2023-01-11T01:54:27.582Z,31.10
2023-01-11T01:57:04.760Z,32.35
2023-01-11T01:59:33.126Z,31.88
2023-01-11T02:02:01.169Z,29.23
2023-01-11T02:04:42.822Z,29.40
2023-01-11T02:07:23.045Z,31.17
2023-01-11T02:09:58.745Z,27.80
2023-01-11T02:12:30.378Z,26.67
2023-01-11T02:17:26.695Z,26.40
2023-01-11T02:20:02.243Z,26.85
2023-01-11T02:22:48.043Z,31.52
2023-01-11T02:25:38.461Z,33.72
2023-01-11T02:28:12.252Z,28.17
2023-01-11T02:30:45.046Z,30.50
2023-01-11T02:33:28.919Z,29.55
2023-01-11T02:36:24.609Z,26.45
2023-01-11T02:39:10.173Z,29.17
2023-01-11T02:42:16.531Z,32.70
2023-01-11T02:45:03.267Z,33.10
2023-01-11T02:47:51.004Z,34.50
2023-01-11T02:50:34.962Z,27.30
2023-01-11T02:53:36.690Z,29.23
2023-01-11T02:56:10.333Z,28.33
2023-01-11T02:58:41.510Z,33.65
2023-01-11T03:01:09.821Z,26.48
2023-01-11T03:03:36.895Z,30.92
2023-01-11T03:06:14.738Z,34.50
2023-01-11T03:08:53.846Z,32.13
2023-01-11T03:12:14.661Z,42.03
2023-01-11T03:14:47.488Z,39.10
2023-01-11T03:17:35.560Z,50.75
2023-01-11T03:20:13.058Z,50.28
2023-01-11T03:25:15.965Z,43.78
2023-01-11T03:28:07.207Z,46.42
2023-01-11T03:30:58.810Z,45.58
2023-01-11T03:33:42.060Z,45.83
2023-01-11T03:36:33.234Z,42.42
2023-01-11T03:39:15.256Z,49.30
2023-01-11T03:41:43.346Z,47.67
2023-01-11T03:44:12.823Z,44.42
2023-01-11T03:46:53.218Z,45.80
2023-01-11T03:49:47.786Z,46.92
2023-01-11T03:52:16.391Z,48.85
2023-01-11T03:54:45.528Z,42.85
2023-01-11T03:57:28.000Z,46.67
2023-01-11T03:59:55.199Z,39.78
2023-01-11T04:02:26.711Z,45.58
2023-01-11T04:04:54.189Z,45.10
2023-01-11T04:07:21.115Z,45.58
2023-01-11T04:09:48.294Z,53.13
2023-01-11T04:12:15.190Z,53.42
2023-01-11T04:14:42.477Z,58.10
2023-01-11T04:17:09.319Z,49.40
2023-01-11T04:19:36.539Z,46.30
2023-01-11T04:22:03.469Z,51.05
2023-01-11T04:24:30.509Z,47.13
2023-01-11T04:26:57.328Z,51.10
2023-01-11T04:29:24.531Z,54.05
2023-01-11T04:31:51.459Z,53.90
2023-01-11T04:34:18.699Z,49.60
2023-01-11T04:36:45.473Z,55.75
2023-01-11T04:39:12.587Z,57.65
2023-01-11T04:41:58.418Z,58.90
2023-01-11T04:44:25.684Z,59.47
2023-01-11T04:46:52.518Z,60.72
2023-01-11T04:49:19.758Z,61.60
2023-01-11T04:51:46.608Z,66.07
2023-01-11T04:54:13.745Z,65.20
2023-01-11T04:56:40.600Z,60.67
2023-01-11T04:59:07.880Z,60.30
2023-01-11T05:01:34.691Z,67.70
2023-01-11T05:04:02.118Z,67.18
2023-01-11T05:06:28.954Z,65.93
2023-01-11T05:08:56.270Z,58.60
2023-01-11T05:11:23.199Z,60.67
2023-01-11T05:13:51.100Z,58.70
2023-01-11T05:16:23.969Z,71.78
2023-01-11T05:18:56.433Z,62.38
2023-01-11T05:21:25.738Z,50.35
2023-01-11T05:23:54.008Z,61.78
2023-01-11T05:26:27.963Z,57.60
2023-01-11T05:28:57.529Z,56.53
2023-01-11T05:31:25.340Z,56.15
2023-01-11T05:33:53.414Z,55.92
2023-01-11T05:36:22.256Z,56.95
2023-01-11T05:38:50.749Z,51.58
2023-01-11T05:41:19.630Z,58.08
2023-01-11T05:44:07.733Z,60.67
2023-01-11T05:46:36.225Z,60.92
2023-01-11T05:49:03.835Z,57.55
2023-01-11T05:51:32.728Z,55.35
2023-01-11T05:54:01.488Z,58.55
2023-01-11T05:56:29.102Z,58.17
2023-01-11T05:58:56.360Z,63.38
2023-01-11T06:01:24.611Z,78.43
2023-01-11T06:03:52.180Z,82.20
2023-01-11T06:06:20.244Z,64.57
2023-01-11T06:08:47.740Z,75.78
2023-01-11T06:11:15.050Z,80.95
2023-01-11T06:13:42.768Z,80.97
2023-01-11T06:16:15.294Z,86.82
2023-01-11T06:18:44.986Z,94.00
2023-01-11T06:21:12.515Z,82.18
2023-01-11T06:23:42.482Z,103.38
2023-01-11T06:26:12.471Z,97.03
2023-01-11T06:28:40.459Z,129.95
2023-01-11T06:31:07.988Z,138.40
2023-01-11T06:33:36.568Z,120.10
2023-01-11T06:36:06.517Z,107.63
2023-01-11T06:38:34.637Z,107.20
2023-01-11T06:41:03.762Z,110.93
2023-01-11T06:43:32.589Z,103.78
2023-01-11T06:46:00.164Z,120.25
2023-01-11T06:48:28.379Z,96.38
2023-01-11T06:50:57.882Z,89.32
2023-01-11T06:53:28.408Z,109.97
2023-01-11T06:55:57.325Z,147.98
2023-01-11T06:58:25.650Z,99.75
2023-01-11T07:00:54.054Z,93.32
2023-01-11T07:03:24.041Z,91.97
2023-01-11T07:05:52.309Z,94.40
2023-01-11T07:08:20.182Z,471.92
2023-01-11T07:10:47.203Z,118.10
2023-01-11T07:13:18.055Z,175.73
2023-01-11T07:15:46.815Z,103.43
2023-01-11T07:18:14.469Z,99.85
2023-01-11T07:20:41.491Z,90.07
2023-01-11T07:23:08.828Z,121.40
2023-01-11T07:25:37.292Z,87.75
2023-01-11T07:28:07.234Z,86.93
2023-01-11T07:30:51.835Z,87.78
2023-01-11T07:33:23.347Z,92.05
2023-01-11T07:35:50.301Z,90.50
2023-01-11T07:38:17.428Z,114.28
2023-01-11T07:40:44.216Z,89.85
2023-01-11T07:43:15.186Z,82.82
2023-01-11T07:45:49.305Z,86.68
2023-01-11T07:48:26.407Z,77.55
2023-01-11T07:50:54.129Z,90.88
2023-01-11T07:53:21.883Z,76.47
2023-01-11T07:55:48.766Z,84.43
2023-01-11T07:58:16.242Z,85.63
2023-01-11T08:00:43.417Z,89.00
2023-01-11T08:03:10.792Z,86.43
2023-01-11T08:05:37.996Z,80.57
2023-01-11T08:08:05.663Z,75.55
2023-01-11T08:10:32.986Z,83.88
2023-01-11T08:13:18.860Z,72.88
2023-01-11T08:15:46.031Z,74.32
2023-01-11T08:18:14.196Z,68.07
2023-01-11T08:20:41.220Z,72.45
2023-01-11T08:23:10.407Z,71.03
2023-01-11T08:25:37.528Z,71.43
2023-01-11T08:28:06.527Z,70.85
2023-01-11T08:30:33.545Z,78.88
2023-01-11T08:33:02.235Z,72.90
2023-01-11T08:35:29.207Z,71.18
2023-01-11T08:37:56.415Z,70.97
2023-01-11T08:40:25.429Z,84.32
2023-01-11T08:42:59.033Z,71.15
2023-01-11T08:45:26.131Z,73.10
2023-01-11T08:47:54.078Z,71.53
2023-01-11T08:50:22.316Z,68.05
2023-01-11T08:52:51.484Z,61.25
2023-01-11T08:55:19.623Z,61.63
2023-01-11T08:57:47.287Z,65.45
2023-01-11T09:00:14.989Z,62.05
2023-01-11T09:02:42.268Z,57.22
2023-01-11T09:05:09.695Z,110.18
2023-01-11T09:07:36.820Z,70.50
2023-01-11T09:10:04.420Z,65.93
2023-01-11T09:12:32.847Z,66.65
2023-01-11T09:15:00.018Z,57.47
2023-01-11T09:17:27.448Z,65.90
2023-01-11T09:19:55.851Z,63.50
2023-01-11T09:22:23.047Z,69.22
2023-01-11T09:24:50.227Z,59.65
2023-01-11T09:27:17.471Z,58.53
2023-01-11T09:29:46.313Z,70.50
2023-01-11T09:32:13.235Z,64.10
2023-01-11T09:34:41.859Z,69.00
2023-01-11T09:37:09.055Z,58.85
2023-01-11T09:39:37.262Z,77.55
2023-01-11T09:42:35.598Z,69.82
2023-01-11T09:45:11.703Z,63.20
2023-01-11T09:47:40.950Z,54.08
2023-01-11T09:50:23.496Z,43.25
2023-01-11T09:52:57.385Z,52.63
2023-01-11T09:55:38.350Z,49.85
2023-01-11T09:58:32.850Z,50.75
2023-01-11T10:01:15.276Z,51.30
2023-01-11T10:04:04.181Z,47.65
2023-01-11T10:06:58.694Z,48.90
2023-01-11T10:18:27.478Z,48.17
2023-01-11T10:19:31.567Z,50.70
2023-01-11T10:22:02.181Z,46.78
2023-01-11T10:24:53.873Z,44.45
2023-01-11T10:27:39.511Z,50.50
2023-01-11T10:30:52.242Z,49.92
2023-01-11T10:34:00.907Z,41.65
2023-01-11T10:37:05.118Z,44.40
2023-01-11T10:39:57.089Z,49.40
2023-01-11T10:42:28.804Z,33.10
2023-01-11T10:45:15.746Z,33.47
2023-01-11T10:47:56.454Z,37.88
2023-01-11T10:50:32.345Z,37.45
2023-01-11T10:53:25.053Z,42.97
2023-01-11T10:56:05.058Z,43.88
2023-01-11T10:59:07.429Z,44.75
2023-01-11T11:01:54.491Z,39.17
2023-01-11T11:04:43.468Z,42.00
2023-01-11T11:07:22.348Z,38.65
2023-01-11T11:10:13.162Z,44.92
2023-01-11T11:12:54.657Z,41.92
2023-01-11T11:15:31.782Z,38.30
2023-01-11T11:17:58.781Z,39.13
2023-01-11T11:20:31.016Z,41.38
2023-01-11T11:22:58.100Z,36.00
2023-01-11T11:25:34.607Z,36.53
2023-01-11T11:28:06.690Z,44.97
2023-01-11T11:30:39.538Z,49.40
2023-01-11T11:33:16.396Z,30.42
2023-01-11T11:35:46.436Z,35.63
2023-01-11T11:38:34.038Z,33.13
2023-01-11T11:41:11.838Z,34.10
2023-01-11T11:43:40.804Z,30.85
2023-01-11T11:46:18.775Z,30.27
2023-01-11T11:49:18.014Z,32.88
2023-01-11T11:51:47.252Z,36.17
2023-01-11T11:54:20.333Z,31.15
2023-01-11T11:56:47.721Z,29.63
2023-01-11T11:59:18.091Z,23.42
2023-01-11T12:01:48.618Z,23.70
2023-01-11T12:04:19.276Z,20.38
2023-01-11T12:07:12.688Z,20.55
2023-01-11T12:09:42.623Z,20.38
2023-01-11T12:12:16.551Z,27.10
2023-01-11T12:14:43.490Z,22.50
2023-01-11T12:17:25.522Z,18.75
2023-01-11T12:19:52.366Z,23.65
2023-01-11T12:22:21.922Z,23.30
2023-01-11T12:25:10.178Z,18.60
2023-01-11T12:28:04.135Z,21.63
2023-01-11T12:31:09.314Z,20.17
2023-01-11T12:33:54.570Z,22.30
2023-01-11T12:36:27.049Z,21.92
2023-01-11T12:39:05.070Z,26.48
2023-01-11T12:41:50.429Z,31.77
2023-01-11T12:44:25.474Z,27.95
2023-01-11T12:47:20.101Z,26.65
2023-01-11T12:50:02.442Z,24.58
2023-01-11T12:52:41.628Z,29.17
2023-01-11T12:55:44.125Z,29.55
2023-01-11T12:58:32.718Z,28.20
2023-01-11T13:01:38.406Z,28.10
2023-01-11T13:04:14.198Z,28.70
2023-01-11T13:07:05.998Z,33.20
2023-01-11T13:09:41.084Z,32.42
2023-01-11T13:12:28.279Z,27.70
2023-01-11T13:15:16.739Z,31.52
2023-01-11T13:18:08.054Z,29.95
2023-01-11T13:21:01.370Z,33.45
2023-01-11T13:23:33.622Z,30.85
2023-01-11T13:28:40.490Z,32.40
2023-01-11T13:31:11.132Z,28.30
2023-01-11T13:33:43.863Z,30.35
2023-01-11T13:36:22.566Z,43.22
2023-01-11T13:39:21.079Z,78.82
2023-01-11T13:42:00.582Z,64.63
2023-01-11T13:44:36.999Z,48.28
2023-01-11T13:47:10.345Z,37.67
2023-01-11T13:50:01.470Z,97.53
2023-01-11T13:52:32.562Z,429.45
2023-01-11T13:55:32.742Z,45.85
2023-01-11T13:58:11.446Z,56.38
2023-01-11T14:00:43.933Z,132.85
2023-01-11T14:03:31.208Z,147.68
2023-01-11T14:06:33.042Z,104.78
2023-01-11T14:09:20.205Z,156.63
2023-01-11T14:12:19.955Z,55.13
2023-01-11T14:15:22.192Z,36.05
2023-01-11T14:18:11.326Z,75.70
2023-01-11T14:20:38.424Z,54.95
2023-01-11T14:23:15.543Z,46.08
2023-01-11T14:26:09.412Z,50.67
2023-01-11T14:29:04.362Z,46.33
2023-01-11T14:31:37.204Z,58.70
2023-01-11T14:34:22.541Z,36.25
2023-01-11T14:37:28.170Z,30.45
2023-01-11T14:40:34.065Z,35.28
2023-01-11T14:43:16.350Z,37.70
2023-01-11T14:46:28.533Z,60.28
2023-01-11T14:49:17.168Z,65.47
2023-01-11T14:51:44.303Z,71.68
2023-01-11T14:54:22.703Z,58.03
2023-01-11T14:56:53.786Z,95.40
2023-01-11T14:59:40.021Z,65.05
2023-01-11T15:02:14.520Z,71.63
2023-01-11T15:04:56.613Z,78.00
2023-01-11T15:07:33.541Z,83.25
2023-01-11T15:10:06.031Z,77.35
2023-01-11T15:12:40.947Z,65.97
2023-01-11T15:15:17.168Z,66.53
2023-01-11T15:18:03.297Z,70.75
2023-01-11T15:20:31.165Z,70.40
2023-01-11T15:23:04.280Z,71.97
2023-01-11T15:25:35.319Z,70.60
2023-01-11T15:28:25.041Z,71.68
2023-01-11T15:30:52.473Z,70.57
2023-01-11T15:33:19.817Z,72.80
2023-01-11T15:35:56.085Z,73.00
2023-01-11T15:38:49.528Z,71.47
2023-01-11T15:41:48.945Z,86.97
2023-01-11T15:44:35.562Z,85.05
2023-01-11T15:47:11.731Z,80.32
2023-01-11T15:50:26.872Z,93.20
2023-01-11T15:53:27.724Z,89.18
2023-01-11T15:56:37.404Z,93.70
2023-01-11T15:59:26.129Z,78.28
2023-01-11T16:02:11.970Z,80.13
2023-01-11T16:05:01.789Z,73.63
2023-01-11T16:07:54.253Z,75.15
2023-01-11T16:10:45.274Z,70.82
2023-01-11T16:13:33.977Z,65.35
2023-01-11T16:16:15.178Z,70.25
2023-01-11T16:18:47.054Z,72.78
2023-01-11T16:23:47.305Z,74.13
2023-01-11T16:26:20.982Z,74.47
2023-01-11T16:28:51.877Z,79.43
2023-01-11T16:31:19.835Z,79.65
2023-01-11T16:33:49.590Z,83.45
2023-01-11T16:36:23.360Z,92.18
2023-01-11T16:39:07.764Z,88.57
2023-01-11T16:41:45.598Z,94.10
2023-01-11T16:47:04.506Z,75.63
2023-01-11T16:49:31.753Z,96.85
2023-01-11T16:52:00.539Z,85.15
2023-01-11T16:54:32.188Z,81.85
2023-01-11T16:57:01.280Z,79.82
2023-01-11T16:59:34.964Z,90.28
2023-01-11T17:02:03.882Z,79.15
2023-01-11T17:04:49.250Z,83.85
2023-01-11T17:07:27.289Z,72.15
2023-01-11T17:10:14.422Z,74.47
2023-01-11T17:12:45.117Z,75.22
2023-01-11T17:15:34.832Z,70.47
2023-01-11T17:18:04.032Z,74.47
2023-01-11T17:20:31.979Z,79.45
2023-01-11T17:23:00.078Z,83.53
2023-01-11T17:25:44.064Z,83.78
2023-01-11T17:28:19.949Z,78.93
2023-01-11T17:30:50.042Z,88.13
2023-01-11T17:33:34.403Z,92.28
2023-01-11T17:36:02.795Z,103.55
2023-01-11T17:38:30.657Z,91.10
2023-01-11T17:40:58.913Z,87.20
2023-01-11T17:43:47.208Z,71.85
2023-01-11T17:46:19.450Z,63.80
2023-01-11T17:49:00.150Z,62.78
2023-01-11T17:51:34.371Z,63.60
2023-01-11T17:54:01.555Z,61.78
2023-01-11T17:56:41.736Z,67.30
2023-01-11T17:59:11.655Z,55.63
2023-01-11T18:01:45.046Z,68.03
2023-01-11T18:04:19.244Z,80.32
2023-01-11T18:06:48.608Z,79.50
2023-01-11T18:09:29.379Z,82.70
2023-01-11T18:12:08.810Z,74.07
2023-01-11T18:14:41.035Z,73.00
2023-01-11T18:17:32.416Z,71.88
2023-01-11T18:20:00.557Z,74.82
2023-01-11T18:22:35.301Z,83.93
2023-01-11T18:25:20.460Z,70.22
2023-01-11T18:27:47.854Z,79.85
2023-01-11T18:30:33.169Z,74.50
2023-01-11T18:33:04.135Z,69.65
2023-01-11T18:35:42.806Z,71.97
2023-01-11T18:38:16.690Z,77.68
2023-01-11T18:40:45.037Z,74.50
2023-01-11T18:43:14.683Z,72.97
2023-01-11T18:45:42.484Z,61.47
2023-01-11T18:48:14.476Z,62.83
2023-01-11T18:50:44.071Z,60.90
2023-01-11T18:53:12.970Z,60.58
2023-01-11T18:55:41.425Z,64.25
2023-01-11T18:58:10.239Z,63.10
2023-01-11T19:00:37.834Z,73.93
2023-01-11T19:03:05.807Z,67.72
2023-01-11T19:05:33.083Z,61.92
2023-01-11T19:08:00.215Z,58.13
2023-01-11T19:10:28.117Z,53.03
2023-01-11T19:12:57.459Z,52.75
2023-01-11T19:15:24.716Z,55.03
2023-01-11T19:17:51.891Z,55.25
2023-01-11T19:20:18.964Z,54.30
2023-01-11T19:22:46.145Z,43.22
2023-01-11T19:25:13.036Z,44.45
2023-01-11T19:27:40.868Z,40.05
2023-01-11T19:30:09.266Z,46.83
2023-01-11T19:32:36.534Z,42.95
2023-01-11T19:35:03.664Z,52.03
2023-01-11T19:37:31.153Z,45.25
2023-01-11T19:39:58.389Z,51.17
2023-01-11T19:42:25.869Z,52.10
2023-01-11T19:44:53.803Z,57.95
2023-01-11T19:47:20.991Z,57.35
2023-01-11T19:49:47.955Z,62.70
2023-01-11T19:52:21.003Z,108.13
2023-01-11T19:54:48.471Z,102.78
2023-01-11T19:57:20.828Z,101.88
2023-01-11T19:59:49.106Z,116.38
2023-01-11T20:02:20.066Z,89.53
2023-01-11T20:04:47.703Z,104.57
2023-01-11T20:07:15.324Z,53.80
2023-01-11T20:09:42.641Z,119.97
2023-01-11T20:12:12.723Z,71.85
2023-01-11T20:14:40.752Z,43.17
2023-01-11T20:17:09.846Z,39.20
2023-01-11T20:19:36.714Z,36.40
2023-01-11T20:22:04.206Z,28.67
2023-01-11T20:24:31.702Z,29.77
2023-01-11T20:27:01.536Z,40.10
2023-01-11T20:29:29.870Z,34.28
2023-01-11T20:32:13.405Z,38.17
2023-01-11T20:34:44.068Z,38.08
2023-01-11T20:37:11.437Z,39.75
2023-01-11T20:39:38.433Z,38.97
2023-01-11T20:42:05.730Z,32.58
2023-01-11T20:44:32.662Z,33.08
2023-01-11T20:47:00.439Z,23.40
2023-01-11T20:49:31.855Z,22.90
2023-01-11T20:51:59.403Z,18.58
2023-01-11T20:54:26.423Z,20.17
2023-01-11T20:56:53.824Z,19.08
2023-01-11T20:59:20.807Z,21.80
2023-01-11T21:01:49.705Z,16.50
2023-01-11T21:04:17.968Z,17.90
2023-01-11T21:06:48.066Z,16.20
2023-01-11T21:09:17.379Z,14.82
2023-01-11T21:11:48.810Z,16.02
2023-01-11T21:14:15.670Z,14.10
2023-01-11T21:16:44.449Z,13.82
2023-01-11T21:19:12.740Z,12.43
2023-01-11T21:21:40.534Z,9.45
2023-01-11T21:24:08.377Z,9.13
2023-01-11T21:26:36.242Z,9.15
2023-01-11T21:29:05.480Z,10.85
2023-01-11T21:31:34.870Z,9.90
2023-01-11T21:34:02.408Z,8.75
2023-01-11T21:36:31.802Z,10.00
2023-01-11T21:39:00.419Z,10.80
2023-01-11T21:41:50.160Z,10.15
2023-01-11T21:44:19.588Z,9.95
2023-01-11T21:46:46.967Z,9.05
2023-01-11T21:49:14.544Z,9.55
2023-01-11T21:51:42.562Z,11.40
2023-01-11T21:54:12.569Z,9.32
2023-01-11T21:56:41.960Z,8.05
2023-01-11T21:59:09.240Z,9.52
2023-01-11T22:01:38.374Z,7.88
2023-01-11T22:04:11.567Z,9.98
2023-01-11T22:06:47.374Z,11.73
2023-01-11T22:09:14.735Z,10.65
2023-01-11T22:11:42.073Z,10.35
2023-01-11T22:14:09.170Z,11.77
2023-01-11T22:16:37.470Z,10.68
2023-01-11T22:19:07.583Z,11.43
2023-01-11T22:21:36.126Z,11.57
2023-01-11T22:24:04.968Z,9.95
2023-01-11T22:26:38.595Z,10.35
2023-01-11T22:29:16.478Z,10.95
2023-01-11T22:31:54.859Z,10.60
2023-01-11T22:34:22.744Z,10.05
2023-01-11T22:36:50.312Z,11.52
2023-01-11T22:39:19.476Z,11.02
2023-01-11T22:41:48.668Z,11.43
2023-01-11T22:44:15.863Z,11.73
2023-01-11T22:46:44.053Z,10.55
2023-01-11T22:49:11.760Z,10.02
2023-01-11T22:51:40.555Z,9.93
2023-01-11T22:54:07.760Z,10.73
2023-01-11T22:56:34.994Z,11.57
2023-01-11T22:59:02.105Z,11.93
2023-01-11T23:01:31.912Z,11.90
2023-01-11T23:03:59.955Z,14.80
2023-01-11T23:06:35.356Z,11.52
2023-01-11T23:09:02.605Z,11.43
2023-01-11T23:11:51.026Z,12.80
2023-01-11T23:14:19.567Z,13.90
2023-01-11T23:16:48.332Z,10.05
2023-01-11T23:19:18.218Z,12.05
2023-01-11T23:21:46.479Z,14.50
2023-01-11T23:24:15.412Z,15.57
2023-01-11T23:26:43.597Z,13.50
2023-01-11T23:29:10.670Z,12.45
2023-01-11T23:31:38.015Z,11.88
2023-01-11T23:34:07.895Z,9.77
2023-01-11T23:36:37.513Z,12.63
2023-01-11T23:39:07.141Z,12.25
2023-01-11T23:41:52.901Z,11.90
2023-01-11T23:44:19.824Z,12.50
2023-01-11T23:47:05.551Z,12.52
2023-01-11T23:49:32.765Z,11.63
2023-01-11T23:52:00.635Z,10.82
2023-01-11T23:54:32.961Z,11.93
2023-01-11T23:57:01.861Z,12.20
2023-01-11T23:59:29.030Z,11.57
